Captain Neal Burgess — WDE6115 — position and weather

sailwx.info

Track history (hours):
 
Tides and Currents Weather Stations Pressure Air Temp Water Temp Dewpoint Dewpoint Depression Visibility Wind Speed Wind Dir Waves Ship Positions

Captain Neal Burgess

Owner: Maine State Ferry Service, Rockland, ME. More information available from US FCC via Universal Licensing System and Coast Guard Vessel Documentation Center.

Last reported at 2018-Jun-21 17:33 UTC. Time now 2018-Jun-22 03:42 UTC.
Position N 44°06' W 069°06'.

Type: Passenger vessel. MMSI: 367375970.

Date/timePositionNaut miles runAvg speedWind from/ knotsBaromVisibWave heightAir tempDewpointWater temp
2018-Jun-21 17:33N 44°06' W 069°06'1 7.4
2018-Jun-21 17:29N 44°06' W 069°06'611.6
2018-Jun-21 17:00N 44°06' W 068°58'4 1.7
2018-Jun-21 14:38N 44°08' W 068°53'1 9.6
2018-Jun-21 14:28N 44°07' W 068°55'510.1
2018-Jun-21 14:00N 44°06' W 069°01'4 7.3
2018-Jun-21 13:28N 44°06' W 069°06'0 0.0
2018-Jun-21 12:53N 44°06' W 069°06'1 1.5
2018-Jun-21 12:30N 44°06' W 069°06'710.9
2018-Jun-21 11:50N 44°06' W 068°56'3 0.2
2018-Jun-20 22:18N 44°08' W 068°52'3 9.9
2018-Jun-20 21:58N 44°06' W 068°57'511.5
2018-Jun-20 21:30N 44°06' W 069°04'2 2.8
2018-Jun-20 20:54N 44°06' W 069°06'4 9.5
2018-Jun-20 20:29N 44°06' W 069°01'5 9.9
2018-Jun-20 19:59N 44°07' W 068°54'1 1.7
2018-Jun-20 19:19N 44°08' W 068°53'310.7
2018-Jun-20 19:01N 44°06' W 068°57'611.3
2018-Jun-20 18:30N 44°06' W 069°05'1 1.5
2018-Jun-20 17:38N 44°06' W 069°06'1 8.5
2018-Jun-20 17:29N 44°06' W 069°05'610.9
2018-Jun-20 16:58N 44°06' W 068°57'0 0.0
2018-Jun-20 14:13N 44°06' W 068°57'211.2
2018-Jun-20 14:00N 44°06' W 068°60'4 3.0
2018-Jun-20 12:31N 44°06' W 069°06'0 8.9
2018-Jun-20 12:30N 44°06' W 069°06'610.7
2018-Jun-20 11:59N 44°06' W 068°58'2 0.1
2018-Jun-19 22:05N 44°06' W 068°56'111.1
2018-Jun-19 21:59N 44°06' W 068°57'611.1
2018-Jun-19 21:29N 44°06' W 069°05'1 1.4
2018-Jun-19 20:48N 44°06' W 069°06'3 9.9
2018-Jun-19 20:30N 44°06' W 069°02'3 2.2
2018-Jun-19 18:58N 44°06' W 068°57'511.4
2018-Jun-19 18:30N 44°06' W 069°05'1 1.2
2018-Jun-19 17:41N 44°06' W 069°06'1 4.4
2018-Jun-19 17:30N 44°06' W 069°05'610.8
2018-Jun-19 16:59N 44°06' W 068°57'1 0.4
2018-Jun-19 14:15N 44°06' W 068°56'310.6
2018-Jun-19 13:59N 44°06' W 068°60'4 3.1
2018-Jun-19 12:34N 44°06' W 069°06'1 9.3
2018-Jun-19 12:29N 44°06' W 069°05'511.1
2018-Jun-19 12:00N 44°06' W 068°57'4 0.3
2018-Jun-18 22:13N 44°08' W 068°53'210.5
2018-Jun-18 22:00N 44°06' W 068°55'611.6
2018-Jun-18 21:30N 44°06' W 069°03'2 4.1
2018-Jun-18 20:58N 44°06' W 069°06'5 9.7
2018-Jun-18 20:30N 44°06' W 069°00'5 9.9
2018-Jun-18 20:00N 44°08' W 068°54'1 1.6
2018-Jun-18 19:26N 44°08' W 068°52'4 8.8
2018-Jun-18 19:00N 44°06' W 068°57'611.6
2018-Jun-18 18:28N 44°06' W 069°06'1 0.7
2018-Jun-18 17:42N 44°06' W 069°06'2 9.2
2018-Jun-18 17:29N 44°06' W 069°04'610.9
2018-Jun-18 16:58N 44°06' W 068°56'1 0.4
2018-Jun-18 14:18N 44°07' W 068°55'310.1
2018-Jun-18 13:59N 44°06' W 068°59'5 3.4
2018-Jun-18 12:31N 44°06' W 069°06'0 7.4
2018-Jun-18 12:30N 44°06' W 069°06'610.8
2018-Jun-18 11:59N 44°06' W 068°58'4 0.3
2018-Jun-17 22:15N 44°08' W 068°53'2 9.8
2018-Jun-17 22:00N 44°06' W 068°55'510.9
2018-Jun-17 21:31N 44°06' W 069°03'3 3.6
2018-Jun-17 20:49N 44°06' W 069°06'3 9.0
2018-Jun-17 20:30N 44°06' W 069°03'610.9
2018-Jun-17 20:00N 44°07' W 068°55'2 2.9
2018-Jun-17 19:21N 44°08' W 068°53'410.0
2018-Jun-17 19:00N 44°06' W 068°57'611.1
2018-Jun-17 18:29N 44°06' W 069°05'1 1.2
2018-Jun-17 17:32N 44°06' W 069°06'0 6.6
2018-Jun-17 17:30N 44°06' W 069°06'510.9
2018-Jun-17 17:00N 44°06' W 068°58'0 0.1
2018-Jun-17 14:03N 44°06' W 068°59'111.2
2018-Jun-17 14:00N 44°06' W 068°59'5 3.0
2018-Jun-17 12:29N 44°06' W 069°06'611.3
2018-Jun-17 11:56N 44°06' W 068°57'3 0.2
2018-Jun-16 22:15N 44°08' W 068°53'310.8
2018-Jun-16 21:59N 44°06' W 068°56'511.4
2018-Jun-16 21:30N 44°06' W 069°04'2 3.2
2018-Jun-16 20:56N 44°06' W 069°06'3 6.9
2018-Jun-16 20:30N 44°06' W 069°02'510.8
2018-Jun-16 20:00N 44°07' W 068°55'2 2.6
2018-Jun-16 19:19N 44°08' W 068°53'310.2
2018-Jun-16 19:00N 44°06' W 068°56'611.4
2018-Jun-16 18:30N 44°06' W 069°04'2 3.0
2018-Jun-16 17:59N 44°06' W 069°06'1 1.1
2018-Jun-16 17:29N 44°06' W 069°06'511.4
2018-Jun-16 17:00N 44°06' W 068°58'1 0.2
2018-Jun-16 14:05N 44°06' W 068°59'111.4
2018-Jun-16 13:58N 44°06' W 069°01'4 2.4
2018-Jun-16 12:29N 44°06' W 069°06'7 0.5
2018-Jun-15 21:55N 44°06' W 068°57'511.8
2018-Jun-15 21:29N 44°06' W 069°04'2 2.2
2018-Jun-15 20:46N 44°06' W 069°06'310.9
2018-Jun-15 20:30N 44°06' W 069°02'4 2.4
2018-Jun-15 18:58N 44°06' W 068°57'7 4.5
2018-Jun-15 17:30N 44°06' W 069°06'611.0
2018-Jun-15 16:59N 44°06' W 068°58'2 0.6
2018-Jun-15 14:15N 44°06' W 068°56'310.7
2018-Jun-15 13:59N 44°06' W 068°60'5 3.5
2018-Jun-15 12:41N 44°06' W 069°06'1 2.2
2018-Jun-15 12:27N 44°06' W 069°05'511.2
2018-Jun-15 11:59N 44°06' W 068°58'1 0.1
2018-Jun-14 21:59N 44°06' W 068°57'511.1
2018-Jun-14 21:29N 44°06' W 069°04'1 1.8
2018-Jun-14 20:45N 44°06' W 069°06'311.0
2018-Jun-14 20:30N 44°06' W 069°02'4 2.5
2018-Jun-14 19:02N 44°06' W 068°57'110.9
2018-Jun-14 18:56N 44°06' W 068°59'5 3.5
2018-Jun-14 17:33N 44°06' W 069°06'111.3
2018-Jun-14 17:30N 44°06' W 069°05'6 2.0
2018-Jun-14 14:14N 44°06' W 068°56'311.1
2018-Jun-14 14:00N 44°06' W 068°59'5 3.8
2018-Jun-14 12:39N 44°06' W 069°06'1 3.8
2018-Jun-14 12:29N 44°06' W 069°06'511.3
2018-Jun-14 12:01N 44°06' W 068°58'1 0.1
2018-Jun-13 21:53N 44°06' W 068°57'511.4
2018-Jun-13 21:30N 44°06' W 069°03'2 2.5
2018-Jun-13 20:45N 44°06' W 069°06'310.9
2018-Jun-13 20:29N 44°06' W 069°02'5 3.9
2018-Jun-13 19:09N 44°07' W 068°55'211.1
2018-Jun-13 18:58N 44°06' W 068°57'611.7
2018-Jun-13 18:29N 44°06' W 069°04'1 1.9
2018-Jun-13 17:45N 44°06' W 069°06'3 9.6
2018-Jun-13 17:28N 44°06' W 069°03'510.2
2018-Jun-13 16:59N 44°06' W 068°56'3 1.2
2018-Jun-13 14:32N 44°08' W 068°52'0 8.2
2018-Jun-13 14:30N 44°08' W 068°53'510.3
2018-Jun-13 14:00N 44°06' W 068°59'5 3.5
2018-Jun-13 12:34N 44°06' W 069°06'1 6.8
2018-Jun-13 12:29N 44°06' W 069°06'611.3
2018-Jun-13 11:59N 44°06' W 068°58'1 0.0
2018-Jun-12 21:54N 44°06' W 068°57'410.9
2018-Jun-12 21:30N 44°06' W 069°03'2 3.6
2018-Jun-12 20:52N 44°06' W 069°06'4 9.5
2018-Jun-12 20:28N 44°06' W 069°01'6 5.1
2018-Jun-12 19:17N 44°08' W 068°53'310.9
2018-Jun-12 19:00N 44°06' W 068°56'611.6
2018-Jun-12 18:30N 44°06' W 069°05'1 1.3
2018-Jun-12 17:35N 44°06' W 069°06'1 7.9
2018-Jun-12 17:30N 44°06' W 069°05'510.4
2018-Jun-12 16:59N 44°06' W 068°58'4 1.6
2018-Jun-12 14:29N 44°08' W 068°53'510.4
2018-Jun-12 14:00N 44°06' W 068°59'5 3.3
2018-Jun-12 12:32N 44°06' W 069°06'0 7.3
2018-Jun-12 12:29N 44°06' W 069°06'511.2
2018-Jun-12 12:00N 44°06' W 068°58'1 0.1
2018-Jun-11 21:45N 44°06' W 068°59'311.2
2018-Jun-11 21:30N 44°06' W 069°03'2 2.4
2018-Jun-11 20:45N 44°06' W 069°06'310.9
2018-Jun-11 20:30N 44°06' W 069°02'6 4.6
2018-Jun-11 19:14N 44°07' W 068°54'310.5
2018-Jun-11 18:58N 44°06' W 068°57'511.3
2018-Jun-11 18:30N 44°06' W 069°05'  
Track history (hours):
 
Tides and Currents Weather Stations Pressure Air Temp Water Temp Dewpoint Dewpoint Depression Visibility Wind Speed Wind Dir Waves Ship Positions

Captain Neal Burgess

Owner: Maine State Ferry Service, Rockland, ME. More information available from US FCC via Universal Licensing System and Coast Guard Vessel Documentation Center.

Last reported at 2018-Jun-21 17:33 UTC. Time now 2018-Jun-22 03:42 UTC.
Position N 44°06' W 069°06'.

Type: Passenger vessel. MMSI: 367375970.

Date/timePositionNaut miles runAvg speedWind from/ knotsBaromVisibWave heightAir tempDewpointWater temp
2018-Jun-21 17:33N 44°06' W 069°06'1 7.4
2018-Jun-21 17:29N 44°06' W 069°06'611.6
2018-Jun-21 17:00N 44°06' W 068°58'4 1.7
2018-Jun-21 14:38N 44°08' W 068°53'1 9.6
2018-Jun-21 14:28N 44°07' W 068°55'510.1
2018-Jun-21 14:00N 44°06' W 069°01'4 7.3
2018-Jun-21 13:28N 44°06' W 069°06'0 0.0
2018-Jun-21 12:53N 44°06' W 069°06'1 1.5
2018-Jun-21 12:30N 44°06' W 069°06'710.9
2018-Jun-21 11:50N 44°06' W 068°56'3 0.2
2018-Jun-20 22:18N 44°08' W 068°52'3 9.9
2018-Jun-20 21:58N 44°06' W 068°57'511.5
2018-Jun-20 21:30N 44°06' W 069°04'2 2.8
2018-Jun-20 20:54N 44°06' W 069°06'4 9.5
2018-Jun-20 20:29N 44°06' W 069°01'5 9.9
2018-Jun-20 19:59N 44°07' W 068°54'1 1.7
2018-Jun-20 19:19N 44°08' W 068°53'310.7
2018-Jun-20 19:01N 44°06' W 068°57'611.3
2018-Jun-20 18:30N 44°06' W 069°05'1 1.5
2018-Jun-20 17:38N 44°06' W 069°06'1 8.5
2018-Jun-20 17:29N 44°06' W 069°05'610.9
2018-Jun-20 16:58N 44°06' W 068°57'0 0.0
2018-Jun-20 14:13N 44°06' W 068°57'211.2
2018-Jun-20 14:00N 44°06' W 068°60'4 3.0
2018-Jun-20 12:31N 44°06' W 069°06'0 8.9
2018-Jun-20 12:30N 44°06' W 069°06'610.7
2018-Jun-20 11:59N 44°06' W 068°58'2 0.1
2018-Jun-19 22:05N 44°06' W 068°56'111.1
2018-Jun-19 21:59N 44°06' W 068°57'611.1
2018-Jun-19 21:29N 44°06' W 069°05'1 1.4
2018-Jun-19 20:48N 44°06' W 069°06'3 9.9
2018-Jun-19 20:30N 44°06' W 069°02'3 2.2
2018-Jun-19 18:58N 44°06' W 068°57'511.4
2018-Jun-19 18:30N 44°06' W 069°05'1 1.2
2018-Jun-19 17:41N 44°06' W 069°06'1 4.4
2018-Jun-19 17:30N 44°06' W 069°05'610.8
2018-Jun-19 16:59N 44°06' W 068°57'1 0.4
2018-Jun-19 14:15N 44°06' W 068°56'310.6
2018-Jun-19 13:59N 44°06' W 068°60'4 3.1
2018-Jun-19 12:34N 44°06' W 069°06'1 9.3
2018-Jun-19 12:29N 44°06' W 069°05'511.1
2018-Jun-19 12:00N 44°06' W 068°57'4 0.3
2018-Jun-18 22:13N 44°08' W 068°53'210.5
2018-Jun-18 22:00N 44°06' W 068°55'611.6
2018-Jun-18 21:30N 44°06' W 069°03'2 4.1
2018-Jun-18 20:58N 44°06' W 069°06'5 9.7
2018-Jun-18 20:30N 44°06' W 069°00'5 9.9
2018-Jun-18 20:00N 44°08' W 068°54'1 1.6
2018-Jun-18 19:26N 44°08' W 068°52'4 8.8
2018-Jun-18 19:00N 44°06' W 068°57'611.6
2018-Jun-18 18:28N 44°06' W 069°06'1 0.7
2018-Jun-18 17:42N 44°06' W 069°06'2 9.2
2018-Jun-18 17:29N 44°06' W 069°04'610.9
2018-Jun-18 16:58N 44°06' W 068°56'1 0.4
2018-Jun-18 14:18N 44°07' W 068°55'310.1
2018-Jun-18 13:59N 44°06' W 068°59'5 3.4
2018-Jun-18 12:31N 44°06' W 069°06'0 7.4
2018-Jun-18 12:30N 44°06' W 069°06'610.8
2018-Jun-18 11:59N 44°06' W 068°58'4 0.3
2018-Jun-17 22:15N 44°08' W 068°53'2 9.8
2018-Jun-17 22:00N 44°06' W 068°55'510.9
2018-Jun-17 21:31N 44°06' W 069°03'3 3.6
2018-Jun-17 20:49N 44°06' W 069°06'3 9.0
2018-Jun-17 20:30N 44°06' W 069°03'610.9
2018-Jun-17 20:00N 44°07' W 068°55'2 2.9
2018-Jun-17 19:21N 44°08' W 068°53'410.0
2018-Jun-17 19:00N 44°06' W 068°57'611.1
2018-Jun-17 18:29N 44°06' W 069°05'1 1.2
2018-Jun-17 17:32N 44°06' W 069°06'0 6.6
2018-Jun-17 17:30N 44°06' W 069°06'510.9
2018-Jun-17 17:00N 44°06' W 068°58'0 0.1
2018-Jun-17 14:03N 44°06' W 068°59'111.2
2018-Jun-17 14:00N 44°06' W 068°59'5 3.0
2018-Jun-17 12:29N 44°06' W 069°06'611.3
2018-Jun-17 11:56N 44°06' W 068°57'3 0.2
2018-Jun-16 22:15N 44°08' W 068°53'310.8
2018-Jun-16 21:59N 44°06' W 068°56'511.4
2018-Jun-16 21:30N 44°06' W 069°04'2 3.2
2018-Jun-16 20:56N 44°06' W 069°06'3 6.9
2018-Jun-16 20:30N 44°06' W 069°02'510.8
2018-Jun-16 20:00N 44°07' W 068°55'2 2.6
2018-Jun-16 19:19N 44°08' W 068°53'310.2
2018-Jun-16 19:00N 44°06' W 068°56'611.4
2018-Jun-16 18:30N 44°06' W 069°04'2 3.0
2018-Jun-16 17:59N 44°06' W 069°06'1 1.1
2018-Jun-16 17:29N 44°06' W 069°06'511.4
2018-Jun-16 17:00N 44°06' W 068°58'1 0.2
2018-Jun-16 14:05N 44°06' W 068°59'111.4
2018-Jun-16 13:58N 44°06' W 069°01'4 2.4
2018-Jun-16 12:29N 44°06' W 069°06'7 0.5
2018-Jun-15 21:55N 44°06' W 068°57'511.8
2018-Jun-15 21:29N 44°06' W 069°04'2 2.2
2018-Jun-15 20:46N 44°06' W 069°06'310.9
2018-Jun-15 20:30N 44°06' W 069°02'4 2.4
2018-Jun-15 18:58N 44°06' W 068°57'7 4.5
2018-Jun-15 17:30N 44°06' W 069°06'611.0
2018-Jun-15 16:59N 44°06' W 068°58'2 0.6
2018-Jun-15 14:15N 44°06' W 068°56'310.7
2018-Jun-15 13:59N 44°06' W 068°60'5 3.5
2018-Jun-15 12:41N 44°06' W 069°06'1 2.2
2018-Jun-15 12:27N 44°06' W 069°05'511.2
2018-Jun-15 11:59N 44°06' W 068°58'1 0.1
2018-Jun-14 21:59N 44°06' W 068°57'511.1
2018-Jun-14 21:29N 44°06' W 069°04'1 1.8
2018-Jun-14 20:45N 44°06' W 069°06'311.0
2018-Jun-14 20:30N 44°06' W 069°02'4 2.5
2018-Jun-14 19:02N 44°06' W 068°57'110.9
2018-Jun-14 18:56N 44°06' W 068°59'5 3.5
2018-Jun-14 17:33N 44°06' W 069°06'111.3
2018-Jun-14 17:30N 44°06' W 069°05'6 2.0
2018-Jun-14 14:14N 44°06' W 068°56'311.1
2018-Jun-14 14:00N 44°06' W 068°59'5 3.8
2018-Jun-14 12:39N 44°06' W 069°06'1 3.8
2018-Jun-14 12:29N 44°06' W 069°06'511.3
2018-Jun-14 12:01N 44°06' W 068°58'1 0.1
2018-Jun-13 21:53N 44°06' W 068°57'511.4
2018-Jun-13 21:30N 44°06' W 069°03'2 2.5
2018-Jun-13 20:45N 44°06' W 069°06'310.9
2018-Jun-13 20:29N 44°06' W 069°02'5 3.9
2018-Jun-13 19:09N 44°07' W 068°55'211.1
2018-Jun-13 18:58N 44°06' W 068°57'611.7
2018-Jun-13 18:29N 44°06' W 069°04'1 1.9
2018-Jun-13 17:45N 44°06' W 069°06'3 9.6
2018-Jun-13 17:28N 44°06' W 069°03'510.2
2018-Jun-13 16:59N 44°06' W 068°56'3 1.2
2018-Jun-13 14:32N 44°08' W 068°52'0 8.2
2018-Jun-13 14:30N 44°08' W 068°53'510.3
2018-Jun-13 14:00N 44°06' W 068°59'5 3.5
2018-Jun-13 12:34N 44°06' W 069°06'1 6.8
2018-Jun-13 12:29N 44°06' W 069°06'611.3
2018-Jun-13 11:59N 44°06' W 068°58'1 0.0
2018-Jun-12 21:54N 44°06' W 068°57'410.9
2018-Jun-12 21:30N 44°06' W 069°03'2 3.6
2018-Jun-12 20:52N 44°06' W 069°06'4 9.5
2018-Jun-12 20:28N 44°06' W 069°01'6 5.1
2018-Jun-12 19:17N 44°08' W 068°53'310.9
2018-Jun-12 19:00N 44°06' W 068°56'611.6
2018-Jun-12 18:30N 44°06' W 069°05'1 1.3
2018-Jun-12 17:35N 44°06' W 069°06'1 7.9
2018-Jun-12 17:30N 44°06' W 069°05'510.4
2018-Jun-12 16:59N 44°06' W 068°58'4 1.6
2018-Jun-12 14:29N 44°08' W 068°53'510.4
2018-Jun-12 14:00N 44°06' W 068°59'5 3.3
2018-Jun-12 12:32N 44°06' W 069°06'0 7.3
2018-Jun-12 12:29N 44°06' W 069°06'511.2
2018-Jun-12 12:00N 44°06' W 068°58'1 0.1
2018-Jun-11 21:45N 44°06' W 068°59'311.2
2018-Jun-11 21:30N 44°06' W 069°03'2 2.4
2018-Jun-11 20:45N 44°06' W 069°06'310.9
2018-Jun-11 20:30N 44°06' W 069°02'6 4.6
2018-Jun-11 19:14N 44°07' W 068°54'310.5
2018-Jun-11 18:58N 44°06' W 068°57'511.3
2018-Jun-11 18:30N 44°06' W 069°05'  

Dump ship's entire track history